createdAt,value
2018-01-28T00:01:48.706Z,31.10
2018-01-28T00:04:16.148Z,34.60
2018-01-28T00:06:43.591Z,32.33
2018-01-28T00:09:11.033Z,33.55
2018-01-28T00:11:38.474Z,33.42
2018-01-28T00:14:05.917Z,32.63
2018-01-28T00:16:34.130Z,32.38
2018-01-28T00:19:02.340Z,30.75
2018-01-28T00:21:29.783Z,31.33
2018-01-28T00:23:57.219Z,31.52
2018-01-28T00:26:24.664Z,31.35
2018-01-28T00:28:52.878Z,32.00
2018-01-28T00:31:21.080Z,31.95
2018-01-28T00:33:49.287Z,29.40
2018-01-28T00:36:16.727Z,29.55
2018-01-28T00:38:44.174Z,29.70
2018-01-28T00:41:11.613Z,30.17
2018-01-28T00:43:39.824Z,30.12
2018-01-28T00:46:07.264Z,31.10
2018-01-28T00:48:34.720Z,29.27
2018-01-28T00:51:02.164Z,30.02
2018-01-28T00:53:30.381Z,29.00
2018-01-28T00:55:58.586Z,28.90
2018-01-28T00:58:26.812Z,28.30
2018-01-28T01:00:54.247Z,29.40
2018-01-28T01:03:22.459Z,28.42
2018-01-28T01:05:50.671Z,26.33
2018-01-28T01:08:18.118Z,26.20
2018-01-28T01:10:45.552Z,25.90
2018-01-28T01:13:12.999Z,26.62
2018-01-28T01:15:40.447Z,27.10
2018-01-28T01:18:07.891Z,28.27
2018-01-28T01:20:35.328Z,30.97
2018-01-28T01:23:03.531Z,27.98
2018-01-28T01:25:31.743Z,26.08
2018-01-28T01:27:59.182Z,26.23
2018-01-28T01:30:26.624Z,26.92
2018-01-28T01:32:54.063Z,27.45
2018-01-28T01:35:22.262Z,27.58
2018-01-28T01:37:50.478Z,27.87
2018-01-28T01:40:17.923Z,27.90
2018-01-28T01:42:46.124Z,27.30
2018-01-28T01:45:13.560Z,27.17
2018-01-28T01:47:41.019Z,25.67
2018-01-28T01:50:08.459Z,24.65
2018-01-28T01:52:35.902Z,24.77
2018-01-28T01:55:03.334Z,24.05
2018-01-28T01:57:30.786Z,23.80
2018-01-28T01:59:58.224Z,23.75
2018-01-28T02:02:25.673Z,23.37
2018-01-28T02:04:53.120Z,23.90
2018-01-28T02:07:20.568Z,22.83
2018-01-28T02:09:48.008Z,21.60
2018-01-28T02:12:15.463Z,19.37
2018-01-28T02:14:42.899Z,19.77
2018-01-28T02:17:10.338Z,19.92
2018-01-28T02:19:37.787Z,18.70
2018-01-28T02:22:05.227Z,20.48
2018-01-28T02:24:33.439Z,18.20
2018-01-28T02:27:00.884Z,18.65
2018-01-28T02:29:28.319Z,18.20
2018-01-28T02:31:55.835Z,18.30
2018-01-28T02:34:24.021Z,18.02
2018-01-28T02:36:51.456Z,17.50
2018-01-28T02:39:18.903Z,18.33
2018-01-28T02:41:46.348Z,18.20
2018-01-28T02:44:13.807Z,17.48
2018-01-28T02:46:41.995Z,17.07
2018-01-28T02:49:10.203Z,15.07
2018-01-28T02:51:37.630Z,14.43
2018-01-28T02:54:05.137Z,13.80
2018-01-28T02:56:32.510Z,14.87
2018-01-28T02:58:59.956Z,14.60
2018-01-28T03:01:27.378Z,15.93
2018-01-28T03:03:54.835Z,18.23
2018-01-28T03:06:22.266Z,18.10
2018-01-28T03:08:50.479Z,17.73
2018-01-28T03:11:17.940Z,15.90
2018-01-28T03:13:45.359Z,13.13
2018-01-28T03:16:12.790Z,14.47
2018-01-28T03:18:40.234Z,15.57
2018-01-28T03:21:07.663Z,13.97
2018-01-28T03:23:35.107Z,14.80
2018-01-28T03:26:02.544Z,15.10
2018-01-28T03:28:30.751Z,13.77
2018-01-28T03:30:59.765Z,15.90
2018-01-28T03:33:27.250Z,16.37
2018-01-28T03:35:54.673Z,15.20
2018-01-28T03:38:22.107Z,15.07
2018-01-28T03:40:49.543Z,14.67
2018-01-28T03:43:16.978Z,16.57
2018-01-28T03:45:44.415Z,14.80
2018-01-28T03:48:11.860Z,14.30
2018-01-28T03:50:39.296Z,14.50
2018-01-28T03:53:06.739Z,13.67
2018-01-28T03:55:34.166Z,16.33
2018-01-28T03:58:01.616Z,15.20
2018-01-28T04:00:29.047Z,15.67
2018-01-28T04:02:56.492Z,14.10
2018-01-28T04:05:23.932Z,14.17
2018-01-28T04:07:51.372Z,14.33
2018-01-28T04:10:18.812Z,17.00
2018-01-28T04:12:46.267Z,15.30
2018-01-28T04:15:13.706Z,14.20
2018-01-28T04:17:41.143Z,13.20
2018-01-28T04:20:08.599Z,16.42
2018-01-28T04:22:36.809Z,16.65
2018-01-28T04:25:04.264Z,16.58
2018-01-28T04:27:31.700Z,17.07
2018-01-28T04:29:59.912Z,15.00
2018-01-28T04:32:27.339Z,14.20
2018-01-28T04:34:54.792Z,17.02
2018-01-28T04:37:22.223Z,17.25
2018-01-28T04:39:50.442Z,17.37
2018-01-28T04:42:18.648Z,17.10
2018-01-28T04:44:46.855Z,18.92
2018-01-28T04:47:15.068Z,18.70
2018-01-28T04:49:42.511Z,17.40
2018-01-28T04:52:09.938Z,15.20
2018-01-28T04:54:37.389Z,15.93
2018-01-28T04:57:04.815Z,14.00
2018-01-28T04:59:32.259Z,13.60
2018-01-28T05:02:00.118Z,16.02
2018-01-28T05:04:27.563Z,14.20
2018-01-28T05:06:54.994Z,13.93
2018-01-28T05:09:22.431Z,15.27
2018-01-28T05:11:49.872Z,13.70
2018-01-28T05:14:17.307Z,13.60
2018-01-28T05:16:44.739Z,14.03
2018-01-28T05:19:12.947Z,14.83
2018-01-28T05:21:41.147Z,14.67
2018-01-28T05:24:09.355Z,12.83
2018-01-28T05:26:36.787Z,13.60
2018-01-28T05:29:04.227Z,13.43
2018-01-28T05:31:31.664Z,13.40
2018-01-28T05:33:59.107Z,12.60
2018-01-28T05:36:26.538Z,12.50
2018-01-28T05:38:54.753Z,15.00
2018-01-28T05:41:22.178Z,12.10
2018-01-28T05:43:49.640Z,13.33
2018-01-28T05:46:17.071Z,12.37
2018-01-28T05:48:44.507Z,13.37
2018-01-28T05:51:11.951Z,12.80
2018-01-28T05:53:40.895Z,12.83
2018-01-28T05:56:08.383Z,11.73
2018-01-28T05:58:35.823Z,14.43
2018-01-28T06:01:03.266Z,13.13
2018-01-28T06:03:30.703Z,14.10
2018-01-28T06:05:58.147Z,15.93
2018-01-28T06:08:25.583Z,12.57
2018-01-28T06:10:53.791Z,15.20
2018-01-28T06:13:21.244Z,15.30
2018-01-28T06:15:48.687Z,15.00
2018-01-28T06:18:16.162Z,14.17
2018-01-28T06:20:43.617Z,15.25
2018-01-28T06:23:11.816Z,13.88
2018-01-28T06:25:40.029Z,14.00
2018-01-28T06:28:07.464Z,13.90
2018-01-28T06:30:34.922Z,14.38
2018-01-28T06:33:02.368Z,14.38
2018-01-28T06:35:29.802Z,13.88
2018-01-28T06:37:57.260Z,13.60
2018-01-28T06:40:24.704Z,14.30
2018-01-28T06:42:52.922Z,13.02
2018-01-28T06:45:20.350Z,12.98
2018-01-28T06:47:47.790Z,12.95
2018-01-28T06:50:15.236Z,16.58
2018-01-28T06:52:43.454Z,13.98
2018-01-28T06:55:10.897Z,13.60
2018-01-28T06:57:38.343Z,14.30
2018-01-28T07:00:06.321Z,13.10
2018-01-28T07:02:34.938Z,12.85
2018-01-28T07:05:02.384Z,13.35
2018-01-28T07:07:30.604Z,13.10
2018-01-28T07:09:58.040Z,13.68
2018-01-28T07:12:25.487Z,13.57
2018-01-28T07:14:52.927Z,12.55
2018-01-28T07:17:20.375Z,13.80
2018-01-28T07:19:47.810Z,13.82
2018-01-28T07:22:15.279Z,13.40
2018-01-28T07:24:42.718Z,13.40
2018-01-28T07:27:10.187Z,13.35
2018-01-28T07:29:37.602Z,13.23
2018-01-28T07:32:05.803Z,12.68
2018-01-28T07:34:34.023Z,12.68
2018-01-28T07:37:01.470Z,16.02
2018-01-28T07:39:29.679Z,14.00
2018-01-28T07:41:57.878Z,12.77
2018-01-28T07:44:26.095Z,12.60
2018-01-28T07:46:53.535Z,11.45
2018-01-28T07:49:20.988Z,12.02
2018-01-28T07:51:48.435Z,12.32
2018-01-28T07:54:15.878Z,12.32
2018-01-28T07:56:43.308Z,12.10
2018-01-28T07:59:10.771Z,13.15
2018-01-28T08:01:38.203Z,12.90
2018-01-28T08:04:06.475Z,13.27
2018-01-28T08:06:33.911Z,12.70
2018-01-28T08:09:02.119Z,13.00
2018-01-28T08:11:37.063Z,13.35
2018-01-28T08:14:08.937Z,13.55
2018-01-28T08:16:36.379Z,14.48
2018-01-28T08:19:03.835Z,14.50
2018-01-28T08:21:31.275Z,14.13
2018-01-28T08:23:58.712Z,13.82
2018-01-28T08:26:26.147Z,14.73
2018-01-28T08:28:55.242Z,14.32
2018-01-28T08:31:22.690Z,14.52
2018-01-28T08:33:50.131Z,13.50
2018-01-28T08:36:18.347Z,14.00
2018-01-28T08:38:45.780Z,13.50
2018-01-28T08:41:13.241Z,13.20
2018-01-28T08:43:40.659Z,13.30
2018-01-28T08:46:08.116Z,14.48
2018-01-28T08:48:35.571Z,13.67
2018-01-28T08:51:03.026Z,14.85
2018-01-28T08:53:30.475Z,15.35
2018-01-28T08:55:57.906Z,14.23
2018-01-28T08:58:25.351Z,13.95
2018-01-28T09:00:53.567Z,14.65
2018-01-28T09:03:21.007Z,14.27
2018-01-28T09:05:48.450Z,13.23
2018-01-28T09:08:15.886Z,13.38
2018-01-28T09:10:43.324Z,12.80
2018-01-28T09:13:10.763Z,13.55
2018-01-28T09:15:38.968Z,12.90
2018-01-28T09:18:07.173Z,13.57
2018-01-28T09:20:34.602Z,12.65
2018-01-28T09:23:02.052Z,13.43
2018-01-28T09:25:29.496Z,12.02
2018-01-28T09:27:57.711Z,12.30
2018-01-28T09:30:25.907Z,12.10
2018-01-28T09:32:53.346Z,12.60
2018-01-28T09:35:20.800Z,11.45
2018-01-28T09:37:48.244Z,12.32
2018-01-28T09:40:15.688Z,11.20
2018-01-28T09:42:43.119Z,11.68
2018-01-28T09:45:10.567Z,11.43
2018-01-28T09:47:38.779Z,13.40
2018-01-28T09:50:06.984Z,12.23
2018-01-28T09:52:34.427Z,13.77
2018-01-28T09:55:01.854Z,14.27
2018-01-28T09:57:29.311Z,13.80
2018-01-28T09:59:57.528Z,14.55
2018-01-28T10:02:24.971Z,13.32
2018-01-28T10:04:52.415Z,13.60
2018-01-28T10:07:19.868Z,13.27
2018-01-28T10:09:47.306Z,14.18
2018-01-28T10:12:14.747Z,13.27
2018-01-28T10:14:42.183Z,12.10
2018-01-28T10:17:09.634Z,12.32
2018-01-28T10:19:37.119Z,11.88
2018-01-28T10:22:04.575Z,11.90
2018-01-28T10:24:32.007Z,11.40
2018-01-28T10:27:00.215Z,11.27
2018-01-28T10:29:28.423Z,10.93
2018-01-28T10:31:55.874Z,11.00
2018-01-28T10:34:23.316Z,10.30
2018-01-28T10:36:50.759Z,10.60
2018-01-28T10:39:18.212Z,11.12
2018-01-28T10:41:45.655Z,11.02
2018-01-28T10:44:13.090Z,11.52
2018-01-28T10:46:41.294Z,10.90
2018-01-28T10:49:09.495Z,10.97
2018-01-28T10:51:37.745Z,10.63
2018-01-28T10:54:05.162Z,11.00
2018-01-28T10:56:33.372Z,10.60
2018-01-28T10:59:01.596Z,10.70
2018-01-28T11:01:29.030Z,11.00
2018-01-28T11:03:56.477Z,11.80
2018-01-28T11:06:23.916Z,10.80
2018-01-28T11:08:52.116Z,12.27
2018-01-28T11:11:19.563Z,11.80
2018-01-28T11:13:47.003Z,12.85
2018-01-28T11:16:14.444Z,14.40
2018-01-28T11:18:42.655Z,11.90
2018-01-28T11:21:10.861Z,12.18
2018-01-28T11:23:38.318Z,12.45
2018-01-28T11:26:06.535Z,10.75
2018-01-28T11:28:33.988Z,13.75
2018-01-28T11:31:01.432Z,13.20
2018-01-28T11:33:28.871Z,11.10
2018-01-28T11:35:57.077Z,15.35
2018-01-28T11:38:24.527Z,14.57
2018-01-28T11:40:52.005Z,15.75
2018-01-28T11:43:19.442Z,12.10
2018-01-28T11:45:46.870Z,11.57
2018-01-28T11:48:14.311Z,10.70
2018-01-28T11:50:41.761Z,9.07
2018-01-28T11:53:09.958Z,9.10
2018-01-28T11:55:37.396Z,8.83
2018-01-28T11:58:04.863Z,10.20
2018-01-28T12:00:32.299Z,9.57
2018-01-28T12:02:59.748Z,8.40
2018-01-28T12:05:27.218Z,8.53
2018-01-28T12:07:54.667Z,10.30
2018-01-28T12:10:22.131Z,9.45
2018-01-28T12:12:49.778Z,7.95
2018-01-28T12:15:17.218Z,9.23
2018-01-28T12:17:44.663Z,8.20
2018-01-28T12:20:12.137Z,8.30
2018-01-28T12:22:40.390Z,9.00
2018-01-28T12:25:07.866Z,9.10
2018-01-28T12:27:35.298Z,7.50
2018-01-28T12:30:03.503Z,8.30
2018-01-28T12:32:31.008Z,6.87
2018-01-28T12:34:59.190Z,6.10
2018-01-28T12:37:26.624Z,5.90
2018-01-28T12:39:54.110Z,6.30
2018-01-28T12:42:21.535Z,5.43
2018-01-28T12:44:48.972Z,5.83
2018-01-28T12:47:16.406Z,6.37
2018-01-28T12:49:43.860Z,7.18
2018-01-28T12:52:12.070Z,6.90
2018-01-28T12:54:39.556Z,6.75
2018-01-28T12:57:06.978Z,7.80
2018-01-28T12:59:34.427Z,6.87
2018-01-28T13:02:01.879Z,7.10
2018-01-28T13:04:30.138Z,7.30
2018-01-28T13:06:57.568Z,8.45
2018-01-28T13:09:25.008Z,6.93
2018-01-28T13:11:52.446Z,7.40
2018-01-28T13:14:19.888Z,8.07
2018-01-28T13:16:47.333Z,7.00
2018-01-28T13:19:14.768Z,6.40
2018-01-28T13:21:42.975Z,7.57
2018-01-28T13:24:10.450Z,6.50
2018-01-28T13:26:38.643Z,7.00
2018-01-28T13:29:06.135Z,7.60
2018-01-28T13:31:34.391Z,6.70
2018-01-28T13:34:01.807Z,6.70
2018-01-28T13:36:29.249Z,7.80
2018-01-28T13:38:56.691Z,7.37
2018-01-28T13:41:24.180Z,7.30
2018-01-28T13:43:51.649Z,7.00
2018-01-28T13:46:19.081Z,7.17
2018-01-28T13:48:46.523Z,5.95
2018-01-28T13:51:13.972Z,6.22
2018-01-28T13:53:41.459Z,6.55
2018-01-28T13:56:09.707Z,7.50
2018-01-28T13:58:37.123Z,6.23
2018-01-28T14:01:05.377Z,9.40
2018-01-28T14:03:32.806Z,6.20
2018-01-28T14:06:00.294Z,5.57
2018-01-28T14:08:28.485Z,7.70
2018-01-28T14:10:56.691Z,6.60
2018-01-28T14:13:24.131Z,7.03
2018-01-28T14:15:51.623Z,6.43
2018-01-28T14:18:19.089Z,5.30
2018-01-28T14:20:46.550Z,6.05
2018-01-28T14:23:14.006Z,5.28
2018-01-28T14:25:42.232Z,5.17
2018-01-28T14:28:09.722Z,6.83
2018-01-28T14:30:37.171Z,7.28
2018-01-28T14:33:04.604Z,5.45
2018-01-28T14:35:32.039Z,5.10
2018-01-28T14:37:59.517Z,5.27
2018-01-28T14:40:26.968Z,5.87
2018-01-28T14:42:54.416Z,5.53
2018-01-28T14:45:21.864Z,6.57
2018-01-28T14:47:49.309Z,5.50
2018-01-28T14:50:17.511Z,5.80
2018-01-28T14:52:45.775Z,5.97
2018-01-28T14:55:13.241Z,5.50
2018-01-28T14:57:40.714Z,6.37
2018-01-28T15:00:08.187Z,6.18
2018-01-28T15:02:35.619Z,5.90
2018-01-28T15:05:03.818Z,5.70
2018-01-28T15:07:32.078Z,4.80
2018-01-28T15:09:59.499Z,5.70
2018-01-28T15:12:27.724Z,4.80
2018-01-28T15:14:55.203Z,4.90
2018-01-28T15:17:23.409Z,5.60
2018-01-28T15:19:50.842Z,5.90
2018-01-28T15:22:18.287Z,5.85
2018-01-28T15:24:45.733Z,5.72
2018-01-28T15:27:13.987Z,6.30
2018-01-28T15:29:41.467Z,5.83
2018-01-28T15:32:08.946Z,7.05
2018-01-28T15:34:36.416Z,7.85
2018-01-28T15:37:03.876Z,5.90
2018-01-28T15:39:31.367Z,7.25
2018-01-28T15:41:58.808Z,7.70
2018-01-28T15:44:27.025Z,7.68
2018-01-28T15:46:54.506Z,6.40
2018-01-28T15:49:22.699Z,6.43
2018-01-28T15:51:50.182Z,6.30
2018-01-28T15:54:18.431Z,5.20
2018-01-28T15:56:45.850Z,5.60
2018-01-28T15:59:13.354Z,5.40
2018-01-28T16:01:40.778Z,5.50
2018-01-28T16:04:08.978Z,5.30
2018-01-28T16:06:37.235Z,4.87
2018-01-28T16:09:05.480Z,5.90
2018-01-28T16:11:33.725Z,6.07
2018-01-28T16:14:01.148Z,5.97
2018-01-28T16:16:29.346Z,5.80
2018-01-28T16:18:57.544Z,4.90
2018-01-28T16:21:25.798Z,6.27
2018-01-28T16:23:53.210Z,5.67
2018-01-28T16:26:20.704Z,5.20
2018-01-28T16:28:48.166Z,6.77
2018-01-28T16:31:15.596Z,7.00
2018-01-28T16:33:43.024Z,5.43
2018-01-28T16:36:10.463Z,6.40
2018-01-28T16:38:37.937Z,6.90
2018-01-28T16:41:05.406Z,9.07
2018-01-28T16:43:33.643Z,7.07
2018-01-28T16:46:01.066Z,5.47
2018-01-28T16:48:29.305Z,5.30
2018-01-28T16:50:56.727Z,4.73
2018-01-28T16:53:24.207Z,5.77
2018-01-28T16:55:51.669Z,8.13
2018-01-28T16:58:19.100Z,8.47
2018-01-28T17:00:47.319Z,6.53
2018-01-28T17:03:14.748Z,5.33
2018-01-28T17:05:42.166Z,4.90
2018-01-28T17:08:09.640Z,4.50
2018-01-28T17:10:37.860Z,5.03
2018-01-28T17:13:05.279Z,5.60
2018-01-28T17:15:32.758Z,5.30
2018-01-28T17:18:00.225Z,6.77
2018-01-28T17:20:27.685Z,7.00
2018-01-28T17:22:55.166Z,12.10
2018-01-28T17:25:22.579Z,9.33
2018-01-28T17:27:50.061Z,5.40
2018-01-28T17:30:17.530Z,6.13
2018-01-28T17:32:44.999Z,4.83
2018-01-28T17:35:18.183Z,6.83
2018-01-28T17:37:46.428Z,6.43
2018-01-28T17:40:13.889Z,6.30
2018-01-28T17:42:41.310Z,6.33
2018-01-28T17:45:08.780Z,6.57
2018-01-28T17:47:36.216Z,6.90
2018-01-28T17:50:03.656Z,7.73
2018-01-28T17:52:31.138Z,7.50
2018-01-28T17:54:58.560Z,6.70
2018-01-28T17:57:25.995Z,9.37
2018-01-28T17:59:53.427Z,6.20
2018-01-28T18:02:20.862Z,6.73
2018-01-28T18:04:48.287Z,6.37
2018-01-28T18:07:15.734Z,6.70
2018-01-28T18:09:43.964Z,7.43
2018-01-28T18:12:11.447Z,6.73
2018-01-28T18:14:38.923Z,7.45
2018-01-28T18:17:06.351Z,8.60
2018-01-28T18:19:33.826Z,7.20
2018-01-28T18:22:01.311Z,7.60
2018-01-28T18:24:28.763Z,7.20
2018-01-28T18:26:56.183Z,7.20
2018-01-28T18:29:23.662Z,6.90
2018-01-28T18:31:51.126Z,6.27
2018-01-28T18:34:18.598Z,7.90
2018-01-28T18:36:46.085Z,10.15
2018-01-28T18:39:13.553Z,8.48
2018-01-28T18:41:41.022Z,7.53
2018-01-28T18:44:08.514Z,11.93
2018-01-28T18:46:35.982Z,11.43
2018-01-28T18:49:03.462Z,9.73
2018-01-28T18:51:30.890Z,11.00
2018-01-28T18:53:58.383Z,9.30
2018-01-28T18:56:25.849Z,9.95
2018-01-28T18:58:53.318Z,7.30
2018-01-28T19:01:20.781Z,7.97
2018-01-28T19:03:48.253Z,6.67
2018-01-28T19:06:15.721Z,7.03
2018-01-28T19:08:43.965Z,8.33
2018-01-28T19:11:11.430Z,7.67
2018-01-28T19:13:38.898Z,8.20
2018-01-28T19:16:06.362Z,6.50
2018-01-28T19:18:33.834Z,5.70
2018-01-28T19:21:02.062Z,7.17
2018-01-28T19:23:29.539Z,5.53
2018-01-28T19:25:56.955Z,6.10
2018-01-28T19:28:24.390Z,6.43
2018-01-28T19:30:51.871Z,6.80
2018-01-28T19:33:19.354Z,4.90
2018-01-28T19:35:46.805Z,6.57
2018-01-28T19:38:14.235Z,5.77
2018-01-28T19:40:41.716Z,5.97
2018-01-28T19:43:09.182Z,5.43
2018-01-28T19:45:36.657Z,6.13
2018-01-28T19:48:04.131Z,6.80
2018-01-28T19:50:31.535Z,5.83
2018-01-28T19:52:58.975Z,6.17
2018-01-28T19:55:27.164Z,6.13
2018-01-28T19:57:55.405Z,6.10
2018-01-28T20:00:22.874Z,5.73
2018-01-28T20:02:50.337Z,5.70
2018-01-28T20:05:18.569Z,5.63
2018-01-28T20:07:46.000Z,6.67
2018-01-28T20:10:14.247Z,6.20
2018-01-28T20:12:41.715Z,6.47
2018-01-28T20:15:10.005Z,5.70
2018-01-28T20:17:38.147Z,6.43
2018-01-28T20:20:05.592Z,6.00
2018-01-28T20:22:33.071Z,6.17
2018-01-28T20:25:01.306Z,5.57
2018-01-28T20:27:28.775Z,5.03
2018-01-28T20:29:56.246Z,5.60
2018-01-28T20:32:23.662Z,7.90
2018-01-28T20:34:51.146Z,8.77
2018-01-28T20:37:18.612Z,7.10
2018-01-28T20:39:46.081Z,7.60
2018-01-28T20:42:13.494Z,6.57
2018-01-28T20:44:40.978Z,6.73
2018-01-28T20:47:08.451Z,6.90
2018-01-28T20:49:35.930Z,7.17
2018-01-28T20:52:03.390Z,6.77
2018-01-28T20:54:30.858Z,6.13
2018-01-28T20:56:58.317Z,7.67
2018-01-28T20:59:26.506Z,5.70
2018-01-28T21:01:54.754Z,11.93
2018-01-28T21:04:22.187Z,9.30
2018-01-28T21:06:50.430Z,8.87
2018-01-28T21:09:17.905Z,9.30
2018-01-28T21:11:45.369Z,10.27
2018-01-28T21:14:12.842Z,9.60
2018-01-28T21:16:41.083Z,8.40
2018-01-28T21:19:08.566Z,7.18
2018-01-28T21:21:36.039Z,8.30
2018-01-28T21:24:03.518Z,8.32
2018-01-28T21:26:31.009Z,10.65
2018-01-28T21:28:58.473Z,9.23
2018-01-28T21:31:25.951Z,8.80
2018-01-28T21:33:53.424Z,8.07
2018-01-28T21:36:20.894Z,8.30
2018-01-28T21:38:48.371Z,8.60
2018-01-28T21:41:16.598Z,7.45
2018-01-28T21:43:44.078Z,8.10
2018-01-28T21:46:11.494Z,8.88
2018-01-28T21:48:39.027Z,9.00
2018-01-28T21:51:06.546Z,10.38
2018-01-28T21:53:34.022Z,9.10
2018-01-28T21:56:01.502Z,11.55
2018-01-28T21:58:28.978Z,10.23
2018-01-28T22:00:56.455Z,13.45
2018-01-28T22:03:23.942Z,12.35
2018-01-28T22:05:51.406Z,10.95
2018-01-28T22:08:18.874Z,8.07
2018-01-28T22:10:47.113Z,7.80
2018-01-28T22:13:14.536Z,7.03
2018-01-28T22:15:42.793Z,7.75
2018-01-28T22:18:10.210Z,7.55
2018-01-28T22:20:38.406Z,7.12
2018-01-28T22:23:06.602Z,8.53
2018-01-28T22:25:34.039Z,7.10
2018-01-28T22:28:01.478Z,7.68
2018-01-28T22:30:29.748Z,7.00
2018-01-28T22:32:57.163Z,8.77
2018-01-28T22:35:25.371Z,8.40
2018-01-28T22:37:52.795Z,8.52
2018-01-28T22:40:20.284Z,8.93
2018-01-28T22:42:47.756Z,9.63
2018-01-28T22:45:15.231Z,8.20
2018-01-28T22:47:42.663Z,9.85
2018-01-28T22:50:10.926Z,11.30
2018-01-28T22:52:39.373Z,12.48
2018-01-28T22:55:06.866Z,12.23
2018-01-28T22:57:34.303Z,11.23
2018-01-28T23:00:01.780Z,10.30
2018-01-28T23:02:29.239Z,9.43
2018-01-28T23:04:56.666Z,8.32
2018-01-28T23:07:24.871Z,8.93
2018-01-28T23:09:53.122Z,8.07
2018-01-28T23:12:20.534Z,7.20
2018-01-28T23:14:48.748Z,7.40
2018-01-28T23:17:16.985Z,8.10
2018-01-28T23:19:44.465Z,8.30
2018-01-28T23:22:11.879Z,8.00
2018-01-28T23:24:39.337Z,7.85
2018-01-28T23:27:07.556Z,7.35
2018-01-28T23:29:34.979Z,8.38
2018-01-28T23:32:02.419Z,7.45
2018-01-28T23:34:29.864Z,7.90
2018-01-28T23:36:57.286Z,8.10
2018-01-28T23:39:24.732Z,8.57
2018-01-28T23:41:52.163Z,7.70
2018-01-28T23:44:20.405Z,7.82
2018-01-28T23:46:47.883Z,7.73
2018-01-28T23:49:15.328Z,8.07
2018-01-28T23:51:43.544Z,7.35
2018-01-28T23:54:10.976Z,8.00
2018-01-28T23:56:38.411Z,7.50
2018-01-28T23:59:05.859Z,7.05
